sensor_id;sensor_type;location;lat;lon;timestamp;pressure;altitude;pressure_sealevel;temperature;humidity
64095;BME280;50353;51.420;5.682;2023-02-21T00:00:09;101826.31;;;9.23;91.74
64095;BME280;50353;51.420;5.682;2023-02-21T00:02:53;101834.81;;;9.07;93.53
64095;BME280;50353;51.420;5.682;2023-02-21T00:05:37;101832.72;;;8.93;93.71
64095;BME280;50353;51.420;5.682;2023-02-21T00:08:21;101834.94;;;9.04;93.78
64095;BME280;50353;51.420;5.682;2023-02-21T00:11:05;101835.56;;;9.11;93.54
64095;BME280;50353;51.420;5.682;2023-02-21T00:13:49;101832.47;;;9.23;92.09
64095;BME280;50353;51.420;5.682;2023-02-21T00:16:33;101834.81;;;9.07;93.15
64095;BME280;50353;51.420;5.682;2023-02-21T00:19:17;101837.13;;;9.17;93.46
64095;BME280;50353;51.420;5.682;2023-02-21T00:22:01;101828.16;;;8.97;93.51
64095;BME280;50353;51.420;5.682;2023-02-21T00:24:45;101835.94;;;9.24;92.58
64095;BME280;50353;51.420;5.682;2023-02-21T00:27:29;101839.63;;;9.20;92.41
64095;BME280;50353;51.420;5.682;2023-02-21T00:30:13;101834.75;;;9.09;93.19
64095;BME280;50353;51.420;5.682;2023-02-21T00:32:57;101834.34;;;9.20;92.44
64095;BME280;50353;51.420;5.682;2023-02-21T00:35:41;101830.59;;;9.03;92.96
64095;BME280;50353;51.420;5.682;2023-02-21T00:38:25;101839.22;;;8.83;94.47
64095;BME280;50353;51.420;5.682;2023-02-21T00:41:09;101830.59;;;9.03;93.54
64095;BME280;50353;51.420;5.682;2023-02-21T00:43:53;101837.34;;;9.10;93.26
64095;BME280;50353;51.420;5.682;2023-02-21T00:46:37;101835.56;;;9.11;92.92
64095;BME280;50353;51.420;5.682;2023-02-21T00:49:21;101832.00;;;9.12;93.39
64095;BME280;50353;51.420;5.682;2023-02-21T00:52:05;101824.50;;;9.01;93.42
64095;BME280;50353;51.420;5.682;2023-02-21T00:54:49;101823.34;;;8.85;94.52
64095;BME280;50353;51.420;5.682;2023-02-21T00:57:33;101819.41;;;8.96;93.70
64095;BME280;50353;51.420;5.682;2023-02-21T01:00:20;101814.97;;;8.97;93.93
64095;BME280;50353;51.420;5.682;2023-02-21T01:03:04;101816.34;;;9.07;93.39
64095;BME280;50353;51.420;5.682;2023-02-21T01:05:48;101806.44;;;9.14;92.75
64095;BME280;50353;51.420;5.682;2023-02-21T01:08:32;101807.75;;;9.02;93.38
64095;BME280;50353;51.420;5.682;2023-02-21T01:11:18;101802.25;;;9.08;93.17
64095;BME280;50353;51.420;5.682;2023-02-21T01:14:03;101805.75;;;9.09;92.73
64095;BME280;50353;51.420;5.682;2023-02-21T01:16:47;101804.97;;;9.07;93.62
64095;BME280;50353;51.420;5.682;2023-02-21T01:19:31;101802.88;;;9.15;92.92
64095;BME280;50353;51.420;5.682;2023-02-21T01:22:15;101805.75;;;9.09;93.01
64095;BME280;50353;51.420;5.682;2023-02-21T01:24:59;101801.06;;;8.93;93.92
64095;BME280;50353;51.420;5.682;2023-02-21T01:27:43;101800.94;;;8.96;93.84
64095;BME280;50353;51.420;5.682;2023-02-21T01:30:27;101798.59;;;8.89;94.18
64095;BME280;50353;51.420;5.682;2023-02-21T01:33:11;101796.16;;;9.06;93.10
64095;BME280;50353;51.420;5.682;2023-02-21T01:35:55;101807.41;;;9.11;92.85
64095;BME280;50353;51.420;5.682;2023-02-21T01:38:39;101804.56;;;8.94;93.53
64095;BME280;50353;51.420;5.682;2023-02-21T01:41:23;101794.13;;;8.91;94.11
64095;BME280;50353;51.420;5.682;2023-02-21T01:47:11;101795.03;;;8.90;93.75
64095;BME280;50353;51.420;5.682;2023-02-21T01:49:55;101793.09;;;8.95;93.27
64095;BME280;50353;51.420;5.682;2023-02-21T01:52:40;101799.88;;;8.78;94.47
64095;BME280;50353;51.420;5.682;2023-02-21T01:55:24;101791.50;;;8.91;93.48
64095;BME280;50353;51.420;5.682;2023-02-21T01:58:07;101789.44;;;8.75;94.40
64095;BME280;50353;51.420;5.682;2023-02-21T02:00:51;101788.16;;;8.86;93.90
64095;BME280;50353;51.420;5.682;2023-02-21T02:03:36;101780.13;;;8.89;94.37
64095;BME280;50353;51.420;5.682;2023-02-21T02:06:21;101781.13;;;8.86;94.13
64095;BME280;50353;51.420;5.682;2023-02-21T02:09:20;101791.69;;;8.86;94.19
64095;BME280;50353;51.420;5.682;2023-02-21T02:15:06;101784.75;;;8.84;94.69
64095;BME280;50353;51.420;5.682;2023-02-21T02:26:29;101766.16;;;8.87;94.88
64095;BME280;50353;51.420;5.682;2023-02-21T02:35:30;101757.50;;;8.83;94.86
64095;BME280;50353;51.420;5.682;2023-02-21T02:38:11;101760.72;;;8.68;95.63
64095;BME280;50353;51.420;5.682;2023-02-21T02:40:48;101753.16;;;8.82;94.36
64095;BME280;50353;51.420;5.682;2023-02-21T02:43:21;101753.81;;;8.87;95.18
64095;BME280;50353;51.420;5.682;2023-02-21T02:45:57;101760.25;;;8.80;95.48
64095;BME280;50353;51.420;5.682;2023-02-21T02:48:38;101759.97;;;8.88;95.46
64095;BME280;50353;51.420;5.682;2023-02-21T02:51:08;101751.25;;;8.86;94.90
64095;BME280;50353;51.420;5.682;2023-02-21T02:53:35;101753.19;;;8.80;95.64
64095;BME280;50353;51.420;5.682;2023-02-21T02:56:05;101737.75;;;8.71;96.20
64095;BME280;50353;51.420;5.682;2023-02-21T02:58:38;101746.25;;;8.78;94.87
64095;BME280;50353;51.420;5.682;2023-02-21T03:06:24;101740.38;;;8.71;96.86
64095;BME280;50353;51.420;5.682;2023-02-21T03:09:01;101758.47;;;8.80;96.23
64095;BME280;50353;51.420;5.682;2023-02-21T03:11:27;101759.97;;;8.88;95.54
64095;BME280;50353;51.420;5.682;2023-02-21T03:14:04;101757.25;;;8.66;96.54
64095;BME280;50353;51.420;5.682;2023-02-21T03:16:50;101747.91;;;8.80;96.44
64095;BME280;50353;51.420;5.682;2023-02-21T03:19:23;101745.53;;;8.74;95.76
64095;BME280;50353;51.420;5.682;2023-02-21T03:22:04;101745.81;;;8.67;95.78
64095;BME280;50353;51.420;5.682;2023-02-21T03:24:33;101752.28;;;8.82;96.20
64095;BME280;50353;51.420;5.682;2023-02-21T03:27:03;101750.91;;;8.95;96.08
64095;BME280;50353;51.420;5.682;2023-02-21T03:29:30;101747.72;;;8.63;97.48
64095;BME280;50353;51.420;5.682;2023-02-21T03:32:13;101758.72;;;8.74;96.92
64095;BME280;50353;51.420;5.682;2023-02-21T03:34:41;101761.41;;;8.73;96.78
64095;BME280;50353;51.420;5.682;2023-02-21T03:37:09;101755.25;;;8.72;97.08
64095;BME280;50353;51.420;5.682;2023-02-21T03:39:35;101748.38;;;8.68;97.16
64095;BME280;50353;51.420;5.682;2023-02-21T03:42:00;101758.66;;;8.76;96.57
64095;BME280;50353;51.420;5.682;2023-02-21T03:44:26;101745.59;;;8.73;96.31
64095;BME280;50353;51.420;5.682;2023-02-21T03:46:51;101743.31;;;8.63;97.96
64095;BME280;50353;51.420;5.682;2023-02-21T03:49:16;101738.88;;;8.64;98.30
64095;BME280;50353;51.420;5.682;2023-02-21T03:51:42;101744.97;;;8.66;97.56
64095;BME280;50353;51.420;5.682;2023-02-21T03:54:07;101744.06;;;8.67;97.25
64095;BME280;50353;51.420;5.682;2023-02-21T03:56:32;101738.53;;;8.73;97.27
64095;BME280;50353;51.420;5.682;2023-02-21T03:58:57;101735.84;;;8.75;97.38
64095;BME280;50353;51.420;5.682;2023-02-21T04:01:23;101744.63;;;8.75;97.67
64095;BME280;50353;51.420;5.682;2023-02-21T04:03:48;101739.91;;;8.60;97.96
64095;BME280;50353;51.420;5.682;2023-02-21T04:06:14;101741.44;;;8.66;98.12
64095;BME280;50353;51.420;5.682;2023-02-21T04:08:40;101746.44;;;8.24;100.00
64095;BME280;50353;51.420;5.682;2023-02-21T04:11:05;101743.19;;;8.67;98.92
64095;BME280;50353;51.420;5.682;2023-02-21T04:13:31;101738.41;;;8.76;96.76
64095;BME280;50353;51.420;5.682;2023-02-21T04:15:56;101731.69;;;8.91;96.41
64095;BME280;50353;51.420;5.682;2023-02-21T04:18:21;101731.25;;;8.80;96.80
64095;BME280;50353;51.420;5.682;2023-02-21T04:20:47;101730.19;;;8.62;97.76
64095;BME280;50353;51.420;5.682;2023-02-21T04:23:16;101722.16;;;8.65;97.01
64095;BME280;50353;51.420;5.682;2023-02-21T04:25:42;101718.25;;;8.75;97.43
64095;BME280;50353;51.420;5.682;2023-02-21T04:28:07;101723.66;;;8.49;99.39
64095;BME280;50353;51.420;5.682;2023-02-21T04:30:33;101724.78;;;8.65;98.07
64095;BME280;50353;51.420;5.682;2023-02-21T04:32:58;101722.25;;;8.86;97.36
64095;BME280;50353;51.420;5.682;2023-02-21T04:35:23;101716.34;;;8.79;96.99
64095;BME280;50353;51.420;5.682;2023-02-21T04:37:49;101721.06;;;8.71;97.58
64095;BME280;50353;51.420;5.682;2023-02-21T04:40:14;101723.06;;;8.64;98.95
64095;BME280;50353;51.420;5.682;2023-02-21T04:42:39;101731.31;;;8.55;99.05
64095;BME280;50353;51.420;5.682;2023-02-21T04:45:05;101727.25;;;8.46;100.00
64095;BME280;50353;51.420;5.682;2023-02-21T04:47:30;101728.38;;;8.39;100.00
64095;BME280;50353;51.420;5.682;2023-02-21T04:49:56;101731.72;;;8.19;100.00
64095;BME280;50353;51.420;5.682;2023-02-21T04:52:22;101726.59;;;8.39;100.00
64095;BME280;50353;51.420;5.682;2023-02-21T04:54:47;101721.81;;;8.51;100.00
64095;BME280;50353;51.420;5.682;2023-02-21T04:57:14;101722.41;;;8.59;99.36
64095;BME280;50353;51.420;5.682;2023-02-21T04:59:40;101713.81;;;8.54;99.85
64095;BME280;50353;51.420;5.682;2023-02-21T05:02:05;101717.44;;;8.73;98.42
64095;BME280;50353;51.420;5.682;2023-02-21T05:04:32;101712.81;;;8.80;97.96
64095;BME280;50353;51.420;5.682;2023-02-21T05:06:58;101718.25;;;8.75;98.69
64095;BME280;50353;51.420;5.682;2023-02-21T05:09:23;101723.19;;;8.61;99.31
64095;BME280;50353;51.420;5.682;2023-02-21T05:11:49;101719.91;;;8.54;100.00
64095;BME280;50353;51.420;5.682;2023-02-21T05:14:14;101718.94;;;8.57;100.00
64095;BME280;50353;51.420;5.682;2023-02-21T05:16:41;101716.75;;;8.68;100.00
64095;BME280;50353;51.420;5.682;2023-02-21T05:19:06;101711.31;;;8.73;99.15
64095;BME280;50353;51.420;5.682;2023-02-21T05:21:34;101703.16;;;8.79;98.55
64095;BME280;50353;51.420;5.682;2023-02-21T05:24:00;101725.84;;;8.83;99.02
64095;BME280;50353;51.420;5.682;2023-02-21T05:26:27;101725.34;;;8.73;99.21
64095;BME280;50353;51.420;5.682;2023-02-21T05:28:56;101723.31;;;8.58;100.00
64095;BME280;50353;51.420;5.682;2023-02-21T05:31:22;101724.03;;;8.61;99.73
64095;BME280;50353;51.420;5.682;2023-02-21T05:33:47;101733.44;;;8.69;99.54
64095;BME280;50353;51.420;5.682;2023-02-21T05:36:12;101732.97;;;8.57;99.45
64095;BME280;50353;51.420;5.682;2023-02-21T05:38:46;101735.16;;;8.46;100.00
64095;BME280;50353;51.420;5.682;2023-02-21T05:41:12;101738.09;;;8.62;99.92
64095;BME280;50353;51.420;5.682;2023-02-21T05:43:37;101737.38;;;8.80;97.77
64095;BME280;50353;51.420;5.682;2023-02-21T05:46:03;101738.03;;;8.63;99.11
64095;BME280;50353;51.420;5.682;2023-02-21T05:48:28;101735.53;;;8.60;99.76
64095;BME280;50353;51.420;5.682;2023-02-21T05:50:53;101745.84;;;8.41;100.00
64095;BME280;50353;51.420;5.682;2023-02-21T05:53:19;101737.53;;;8.54;100.00
64095;BME280;50353;51.420;5.682;2023-02-21T05:55:44;101736.28;;;8.39;99.69
64095;BME280;50353;51.420;5.682;2023-02-21T05:58:09;101739.34;;;8.52;100.00
64095;BME280;50353;51.420;5.682;2023-02-21T06:00:34;101743.31;;;8.38;100.00
64095;BME280;50353;51.420;5.682;2023-02-21T06:03:00;101743.50;;;8.59;99.54
64095;BME280;50353;51.420;5.682;2023-02-21T06:05:25;101744.09;;;8.66;98.11
64095;BME280;50353;51.420;5.682;2023-02-21T06:07:50;101739.84;;;8.61;99.19
64095;BME280;50353;51.420;5.682;2023-02-21T06:10:16;101737.22;;;8.61;98.33
64095;BME280;50353;51.420;5.682;2023-02-21T06:12:41;101737.28;;;8.60;98.97
64095;BME280;50353;51.420;5.682;2023-02-21T06:15:08;101743.63;;;8.54;99.24
64095;BME280;50353;51.420;5.682;2023-02-21T06:17:36;101751.88;;;8.45;100.00
64095;BME280;50353;51.420;5.682;2023-02-21T06:20:03;101742.72;;;8.55;100.00
64095;BME280;50353;51.420;5.682;2023-02-21T06:22:28;101749.38;;;8.40;99.83
64095;BME280;50353;51.420;5.682;2023-02-21T06:24:54;101742.66;;;8.32;100.00
64095;BME280;50353;51.420;5.682;2023-02-21T06:27:19;101740.38;;;8.22;100.00
64095;BME280;50353;51.420;5.682;2023-02-21T06:29:44;101740.72;;;8.37;100.00
64095;BME280;50353;51.420;5.682;2023-02-21T06:32:10;101739.88;;;8.11;100.00
64095;BME280;50353;51.420;5.682;2023-02-21T06:34:35;101747.63;;;8.16;100.00
64095;BME280;50353;51.420;5.682;2023-02-21T06:37:00;101743.53;;;8.32;100.00
64095;BME280;50353;51.420;5.682;2023-02-21T06:39:26;101734.56;;;8.38;100.00
64095;BME280;50353;51.420;5.682;2023-02-21T06:41:51;101732.81;;;8.37;100.00
64095;BME280;50353;51.420;5.682;2023-02-21T06:44:17;101740.25;;;8.51;99.56
64095;BME280;50353;51.420;5.682;2023-02-21T06:46:43;101743.31;;;8.38;99.92
64095;BME280;50353;51.420;5.682;2023-02-21T06:49:09;101753.00;;;8.63;98.94
64095;BME280;50353;51.420;5.682;2023-02-21T06:51:36;101762.44;;;8.43;99.96
64095;BME280;50353;51.420;5.682;2023-02-21T06:54:01;101756.25;;;8.46;100.00
64095;BME280;50353;51.420;5.682;2023-02-21T06:56:27;101752.59;;;8.25;99.82
64095;BME280;50353;51.420;5.682;2023-02-21T06:58:53;101755.09;;;8.28;100.00
64095;BME280;50353;51.420;5.682;2023-02-21T07:01:19;101739.59;;;8.45;100.00
64095;BME280;50353;51.420;5.682;2023-02-21T07:03:45;101747.91;;;8.33;100.00
64095;BME280;50353;51.420;5.682;2023-02-21T07:06:11;101747.09;;;8.31;100.00
64095;BME280;50353;51.420;5.682;2023-02-21T07:08:36;101753.97;;;8.35;100.00
64095;BME280;50353;51.420;5.682;2023-02-21T07:11:02;101753.34;;;8.03;100.00
64095;BME280;50353;51.420;5.682;2023-02-21T07:13:28;101743.59;;;8.31;100.00
64095;BME280;50353;51.420;5.682;2023-02-21T07:15:53;101741.75;;;8.58;98.97
64095;BME280;50353;51.420;5.682;2023-02-21T07:18:18;101739.19;;;8.56;98.63
64095;BME280;50353;51.420;5.682;2023-02-21T07:20:44;101738.31;;;8.56;98.21
64095;BME280;50353;51.420;5.682;2023-02-21T07:23:09;101743.88;;;8.48;98.25
64095;BME280;50353;51.420;5.682;2023-02-21T07:25:34;101741.59;;;8.37;98.80
64095;BME280;50353;51.420;5.682;2023-02-21T07:28:00;101746.94;;;8.36;99.15
64095;BME280;50353;51.420;5.682;2023-02-21T07:30:26;101742.13;;;8.22;100.00
64095;BME280;50353;51.420;5.682;2023-02-21T07:32:51;101749.25;;;8.20;99.94
64095;BME280;50353;51.420;5.682;2023-02-21T07:35:17;101748.44;;;7.92;100.00
64095;BME280;50353;51.420;5.682;2023-02-21T07:37:42;101745.28;;;8.33;100.00
64095;BME280;50353;51.420;5.682;2023-02-21T07:40:08;101746.47;;;8.50;99.01
64095;BME280;50353;51.420;5.682;2023-02-21T07:42:33;101742.72;;;8.30;98.92
64095;BME280;50353;51.420;5.682;2023-02-21T07:44:59;101744.72;;;8.49;98.50
64095;BME280;50353;51.420;5.682;2023-02-21T07:47:25;101754.19;;;8.29;99.27
64095;BME280;50353;51.420;5.682;2023-02-21T07:49:51;101754.22;;;8.27;99.99
64095;BME280;50353;51.420;5.682;2023-02-21T07:52:18;101736.66;;;8.53;97.76
64095;BME280;50353;51.420;5.682;2023-02-21T07:54:44;101752.81;;;8.42;97.98
64095;BME280;50353;51.420;5.682;2023-02-21T07:57:09;101749.97;;;8.23;99.48
64095;BME280;50353;51.420;5.682;2023-02-21T07:59:35;101755.03;;;8.55;97.95
64095;BME280;50353;51.420;5.682;2023-02-21T08:02:00;101754.03;;;8.59;97.47
64095;BME280;50353;51.420;5.682;2023-02-21T08:04:26;101752.59;;;8.25;100.00
64095;BME280;50353;51.420;5.682;2023-02-21T08:06:51;101756.72;;;8.07;100.00
64095;BME280;50353;51.420;5.682;2023-02-21T08:09:22;101755.97;;;8.54;98.67
64095;BME280;50353;51.420;5.682;2023-02-21T08:11:47;101764.75;;;8.27;99.68
64095;BME280;50353;51.420;5.682;2023-02-21T08:14:12;101762.78;;;8.09;100.00
64095;BME280;50353;51.420;5.682;2023-02-21T08:16:37;101756.19;;;8.22;99.93
64095;BME280;50353;51.420;5.682;2023-02-21T08:19:03;101758.19;;;8.39;99.29
64095;BME280;50353;51.420;5.682;2023-02-21T08:21:29;101755.03;;;8.29;99.60
64095;BME280;50353;51.420;5.682;2023-02-21T08:23:54;101752.94;;;8.39;98.66
64095;BME280;50353;51.420;5.682;2023-02-21T08:26:20;101751.50;;;8.31;100.00
64095;BME280;50353;51.420;5.682;2023-02-21T08:28:46;101755.50;;;8.41;99.78
64095;BME280;50353;51.420;5.682;2023-02-21T08:31:11;101759.69;;;8.48;99.08
64095;BME280;50353;51.420;5.682;2023-02-21T08:33:37;101755.25;;;8.23;100.00
64095;BME280;50353;51.420;5.682;2023-02-21T08:36:03;101750.53;;;8.33;99.63
64095;BME280;50353;51.420;5.682;2023-02-21T08:38:28;101757.00;;;8.50;99.45
64095;BME280;50353;51.420;5.682;2023-02-21T08:40:54;101747.59;;;8.41;99.55
64095;BME280;50353;51.420;5.682;2023-02-21T08:43:19;101738.69;;;8.45;98.30
64095;BME280;50353;51.420;5.682;2023-02-21T08:45:44;101752.09;;;8.39;98.95
64095;BME280;50353;51.420;5.682;2023-02-21T08:48:09;101752.22;;;8.36;99.02
64095;BME280;50353;51.420;5.682;2023-02-21T08:50:36;101744.84;;;8.45;99.50
64095;BME280;50353;51.420;5.682;2023-02-21T08:53:01;101742.03;;;8.50;98.18
64095;BME280;50353;51.420;5.682;2023-02-21T08:55:26;101737.13;;;8.65;97.44
64095;BME280;50353;51.420;5.682;2023-02-21T08:57:53;101744.66;;;8.50;97.83
64095;BME280;50353;51.420;5.682;2023-02-21T09:00:21;101750.38;;;8.61;97.06
64095;BME280;50353;51.420;5.682;2023-02-21T09:02:53;101750.84;;;8.49;98.27
64095;BME280;50353;51.420;5.682;2023-02-21T09:05:22;101745.16;;;8.36;99.81
64095;BME280;50353;51.420;5.682;2023-02-21T09:07:49;101734.38;;;8.42;99.75
64095;BME280;50353;51.420;5.682;2023-02-21T09:10:16;101741.66;;;8.36;99.66
64095;BME280;50353;51.420;5.682;2023-02-21T09:12:42;101735.53;;;8.35;100.00
64095;BME280;50353;51.420;5.682;2023-02-21T09:15:08;101737.75;;;8.22;100.00
64095;BME280;50353;51.420;5.682;2023-02-21T09:17:34;101733.00;;;8.32;100.00
64095;BME280;50353;51.420;5.682;2023-02-21T09:20:04;101737.41;;;8.57;99.93
64095;BME280;50353;51.420;5.682;2023-02-21T09:22:31;101737.53;;;8.54;98.89
64095;BME280;50353;51.420;5.682;2023-02-21T09:24:58;101739.44;;;8.72;97.84
64095;BME280;50353;51.420;5.682;2023-02-21T09:27:23;101731.31;;;8.78;96.42
64095;BME280;50353;51.420;5.682;2023-02-21T09:30:02;101727.78;;;8.79;97.33
64095;BME280;50353;51.420;5.682;2023-02-21T09:32:28;101736.81;;;8.96;96.36
64095;BME280;50353;51.420;5.682;2023-02-21T09:34:53;101731.66;;;8.69;97.42
64095;BME280;50353;51.420;5.682;2023-02-21T09:37:18;101726.63;;;8.63;98.06
64095;BME280;50353;51.420;5.682;2023-02-21T09:39:44;101730.75;;;8.46;98.18
64095;BME280;50353;51.420;5.682;2023-02-21T09:42:15;101713.50;;;8.61;97.31
64095;BME280;50353;51.420;5.682;2023-02-21T09:44:41;101730.44;;;8.78;96.81
64095;BME280;50353;51.420;5.682;2023-02-21T09:47:09;101722.34;;;8.35;97.29
64095;BME280;50353;51.420;5.682;2023-02-21T09:49:41;101706.59;;;8.59;97.14
64095;BME280;50353;51.420;5.682;2023-02-21T09:52:32;101712.44;;;8.67;96.50
64095;BME280;50353;51.420;5.682;2023-02-21T09:55:00;101720.53;;;8.85;96.27
64095;BME280;50353;51.420;5.682;2023-02-21T09:57:26;101727.19;;;8.48;98.21
64095;BME280;50353;51.420;5.682;2023-02-21T09:59:52;101731.47;;;8.74;96.50
64095;BME280;50353;51.420;5.682;2023-02-21T10:02:41;101727.50;;;8.63;98.13
64095;BME280;50353;51.420;5.682;2023-02-21T10:08:03;101726.38;;;8.69;97.47
64095;BME280;50353;51.420;5.682;2023-02-21T10:10:42;101724.50;;;8.73;97.87
64095;BME280;50353;51.420;5.682;2023-02-21T10:15:44;101722.97;;;8.67;98.42
64095;BME280;50353;51.420;5.682;2023-02-21T10:18:38;101729.06;;;8.91;97.30
64095;BME280;50353;51.420;5.682;2023-02-21T10:21:32;101731.25;;;8.80;97.41
64095;BME280;50353;51.420;5.682;2023-02-21T10:24:02;101724.16;;;8.82;97.59
64095;BME280;50353;51.420;5.682;2023-02-21T10:26:36;101715.16;;;8.88;97.09
64095;BME280;50353;51.420;5.682;2023-02-21T10:29:06;101721.28;;;8.88;96.25
64095;BME280;50353;51.420;5.682;2023-02-21T10:31:38;101729.97;;;8.43;98.51
64095;BME280;50353;51.420;5.682;2023-02-21T10:34:17;101723.13;;;9.08;94.83
64095;BME280;50353;51.420;5.682;2023-02-21T10:36:44;101728.28;;;9.11;94.50
64095;BME280;50353;51.420;5.682;2023-02-21T10:39:18;101723.81;;;8.68;95.83
64095;BME280;50353;51.420;5.682;2023-02-21T10:41:43;101731.59;;;9.17;93.38
64095;BME280;50353;51.420;5.682;2023-02-21T10:44:13;101735.91;;;9.19;93.28
64095;BME280;50353;51.420;5.682;2023-02-21T10:46:46;101720.03;;;8.51;96.70
64095;BME280;50353;51.420;5.682;2023-02-21T10:49:23;101718.84;;;9.06;94.00
64095;BME280;50353;51.420;5.682;2023-02-21T10:52:12;101723.06;;;8.88;94.31
64095;BME280;50353;51.420;5.682;2023-02-21T10:54:38;101735.69;;;8.79;95.56
64095;BME280;50353;51.420;5.682;2023-02-21T10:57:06;101718.84;;;9.06;94.80
64095;BME280;50353;51.420;5.682;2023-02-21T10:59:38;101729.38;;;8.84;96.27
64095;BME280;50353;51.420;5.682;2023-02-21T11:02:28;101736.06;;;8.92;95.29
64095;BME280;50353;51.420;5.682;2023-02-21T11:04:55;101732.84;;;8.84;95.57
64095;BME280;50353;51.420;5.682;2023-02-21T11:07:31;101721.06;;;8.94;95.74
64095;BME280;50353;51.420;5.682;2023-02-21T11:09:56;101722.31;;;9.06;94.05
64095;BME280;50353;51.420;5.682;2023-02-21T11:12:24;101715.09;;;9.11;94.33
64095;BME280;50353;51.420;5.682;2023-02-21T11:17:19;101712.78;;;9.26;91.27
64095;BME280;50353;51.420;5.682;2023-02-21T11:22:13;101707.53;;;9.02;94.00
64095;BME280;50353;51.420;5.682;2023-02-21T11:24:48;101709.19;;;9.27;93.05
64095;BME280;50353;51.420;5.682;2023-02-21T11:27:15;101706.31;;;9.33;91.58
64095;BME280;50353;51.420;5.682;2023-02-21T11:29:43;101697.41;;;9.36;91.93
64095;BME280;50353;51.420;5.682;2023-02-21T11:32:12;101705.34;;;9.36;90.93
64095;BME280;50353;51.420;5.682;2023-02-21T11:34:40;101703.16;;;9.45;90.14
64095;BME280;50353;51.420;5.682;2023-02-21T11:37:12;101700.50;;;9.03;91.88
64095;BME280;50353;51.420;5.682;2023-02-21T11:39:38;101692.47;;;8.84;93.73
64095;BME280;50353;51.420;5.682;2023-02-21T11:42:24;101690.47;;;8.89;93.75
64095;BME280;50353;51.420;5.682;2023-02-21T11:45:09;101680.84;;;9.32;91.89
64095;BME280;50353;51.420;5.682;2023-02-21T11:47:45;101688.00;;;9.51;90.01
64095;BME280;50353;51.420;5.682;2023-02-21T11:50:28;101675.78;;;9.48;90.34
64095;BME280;50353;51.420;5.682;2023-02-21T11:53:14;101680.25;;;9.46;89.40
64095;BME280;50353;51.420;5.682;2023-02-21T11:55:58;101674.38;;;9.39;89.18
64095;BME280;50353;51.420;5.682;2023-02-21T11:59:11;101672.22;;;9.49;89.28
64095;BME280;50353;51.420;5.682;2023-02-21T12:07:11;101656.56;;;9.65;88.38
64095;BME280;50353;51.420;5.682;2023-02-21T12:12:32;101651.97;;;9.50;89.37
64095;BME280;50353;51.420;5.682;2023-02-21T12:15:20;101652.97;;;9.04;88.75
64095;BME280;50353;51.420;5.682;2023-02-21T12:18:06;101660.09;;;9.23;91.61
64095;BME280;50353;51.420;5.682;2023-02-21T12:20:49;101640.06;;;9.19;91.29
64095;BME280;50353;51.420;5.682;2023-02-21T12:26:15;101654.06;;;9.41;90.09
64095;BME280;50353;51.420;5.682;2023-02-21T12:29:05;101644.66;;;9.56;89.47
64095;BME280;50353;51.420;5.682;2023-02-21T12:31:51;101637.13;;;9.47;89.97
64095;BME280;50353;51.420;5.682;2023-02-21T12:34:30;101646.41;;;9.35;89.47
64095;BME280;50353;51.420;5.682;2023-02-21T12:39:40;101637.19;;;9.45;89.04
64095;BME280;50353;51.420;5.682;2023-02-21T12:48:08;101629.25;;;9.66;88.64
64095;BME280;50353;51.420;5.682;2023-02-21T12:50:39;101639.81;;;9.45;88.53
64095;BME280;50353;51.420;5.682;2023-02-21T12:53:14;101624.22;;;9.19;90.00
64095;BME280;50353;51.420;5.682;2023-02-21T12:55:48;101633.28;;;9.54;88.43
64095;BME280;50353;51.420;5.682;2023-02-21T12:58:29;101628.66;;;9.59;87.90
64095;BME280;50353;51.420;5.682;2023-02-21T13:01:07;101635.81;;;9.37;88.29
64095;BME280;50353;51.420;5.682;2023-02-21T13:03:58;101635.34;;;9.47;88.67
64095;BME280;50353;51.420;5.682;2023-02-21T13:06:31;101626.75;;;9.84;86.91
64095;BME280;50353;51.420;5.682;2023-02-21T13:09:01;101627.09;;;9.55;87.36
64095;BME280;50353;51.420;5.682;2023-02-21T13:11:36;101627.91;;;9.14;88.54
64095;BME280;50353;51.420;5.682;2023-02-21T13:14:09;101624.53;;;9.33;88.52
64095;BME280;50353;51.420;5.682;2023-02-21T13:16:36;101617.91;;;9.43;88.30
64095;BME280;50353;51.420;5.682;2023-02-21T13:19:05;101615.81;;;9.52;87.89
64095;BME280;50353;51.420;5.682;2023-02-21T13:21:52;101610.47;;;9.53;88.06
64095;BME280;50353;51.420;5.682;2023-02-21T13:24:32;101617.78;;;9.26;88.88
64095;BME280;50353;51.420;5.682;2023-02-21T13:27:19;101609.22;;;9.41;88.09
64095;BME280;50353;51.420;5.682;2023-02-21T13:29:50;101609.06;;;9.03;89.33
64095;BME280;50353;51.420;5.682;2023-02-21T13:32:18;101609.28;;;9.40;88.26
64095;BME280;50353;51.420;5.682;2023-02-21T13:34:57;101587.63;;;9.52;86.56
64095;BME280;50353;51.420;5.682;2023-02-21T13:37:26;101597.84;;;9.19;87.79
64095;BME280;50353;51.420;5.682;2023-02-21T13:39:56;101593.38;;;9.21;88.33
64095;BME280;50353;51.420;5.682;2023-02-21T13:42:26;101587.38;;;9.17;88.75
64095;BME280;50353;51.420;5.682;2023-02-21T13:45:13;101593.81;;;8.89;89.80
64095;BME280;50353;51.420;5.682;2023-02-21T13:53:10;101566.69;;;9.28;88.42
64095;BME280;50353;51.420;5.682;2023-02-21T13:55:38;101578.22;;;9.26;88.07
64095;BME280;50353;51.420;5.682;2023-02-21T14:05:24;101578.00;;;9.30;87.81
64095;BME280;50353;51.420;5.682;2023-02-21T14:08:00;101588.78;;;9.04;87.78
64095;BME280;50353;51.420;5.682;2023-02-21T14:10:37;101582.47;;;8.65;90.48
64095;BME280;50353;51.420;5.682;2023-02-21T14:13:07;101581.41;;;8.91;90.43
64095;BME280;50353;51.420;5.682;2023-02-21T14:15:46;101580.25;;;8.54;92.00
64095;BME280;50353;51.420;5.682;2023-02-21T14:18:24;101579.09;;;8.84;90.39
64095;BME280;50353;51.420;5.682;2023-02-21T14:20:53;101566.03;;;9.01;89.98
64095;BME280;50353;51.420;5.682;2023-02-21T14:23:22;101573.16;;;8.56;91.97
64095;BME280;50353;51.420;5.682;2023-02-21T14:25:59;101581.56;;;8.66;92.57
64095;BME280;50353;51.420;5.682;2023-02-21T14:31:54;101570.19;;;8.64;90.81
64095;BME280;50353;51.420;5.682;2023-02-21T14:34:25;101562.03;;;9.13;89.71
64095;BME280;50353;51.420;5.682;2023-02-21T14:36:53;101560.28;;;9.13;90.03